sensor_id;sensor_type;location;lat;lon;timestamp;P1;durP1;ratioP1;P2;durP2;ratioP2
76962;SDS011;65902;51.452;7.198;2023-03-07T00:00:58;24.38;;;15.00;;
76962;SDS011;65902;51.452;7.198;2023-03-07T00:02:03;26.05;;;17.23;;
76962;SDS011;65902;51.452;7.198;2023-03-07T00:03:04;29.15;;;19.63;;
76962;SDS011;65902;51.452;7.198;2023-03-07T00:04:05;24.73;;;18.05;;
76962;SDS011;65902;51.452;7.198;2023-03-07T00:05:06;25.90;;;17.27;;
76962;SDS011;65902;51.452;7.198;2023-03-07T00:06:09;23.15;;;16.73;;
76962;SDS011;65902;51.452;7.198;2023-03-07T00:08:31;21.60;;;15.00;;
76962;SDS011;65902;51.452;7.198;2023-03-07T00:09:32;22.65;;;20.52;;
76962;SDS011;65902;51.452;7.198;2023-03-07T00:10:32;22.40;;;15.70;;
76962;SDS011;65902;51.452;7.198;2023-03-07T00:14:11;18.98;;;15.25;;
76962;SDS011;65902;51.452;7.198;2023-03-07T00:15:12;19.80;;;13.98;;
76962;SDS011;65902;51.452;7.198;2023-03-07T00:16:15;16.27;;;14.63;;
76962;SDS011;65902;51.452;7.198;2023-03-07T00:17:20;17.23;;;12.00;;
76962;SDS011;65902;51.452;7.198;2023-03-07T00:18:23;16.77;;;13.70;;
76962;SDS011;65902;51.452;7.198;2023-03-07T00:19:27;14.88;;;11.52;;
76962;SDS011;65902;51.452;7.198;2023-03-07T00:21:59;15.80;;;12.30;;
76962;SDS011;65902;51.452;7.198;2023-03-07T00:23:00;19.42;;;13.88;;
76962;SDS011;65902;51.452;7.198;2023-03-07T00:24:01;18.10;;;12.68;;
76962;SDS011;65902;51.452;7.198;2023-03-07T00:25:02;16.00;;;12.27;;
76962;SDS011;65902;51.452;7.198;2023-03-07T00:26:05;24.15;;;21.88;;
76962;SDS011;65902;51.452;7.198;2023-03-07T00:27:09;18.05;;;11.85;;
76962;SDS011;65902;51.452;7.198;2023-03-07T00:28:10;15.80;;;12.30;;
76962;SDS011;65902;51.452;7.198;2023-03-07T00:29:19;17.35;;;12.93;;
76962;SDS011;65902;51.452;7.198;2023-03-07T00:30:48;17.98;;;11.50;;
76962;SDS011;65902;51.452;7.198;2023-03-07T00:32:29;14.23;;;9.45;;
76962;SDS011;65902;51.452;7.198;2023-03-07T00:35:58;15.35;;;12.45;;
76962;SDS011;65902;51.452;7.198;2023-03-07T00:37:42;11.88;;;9.10;;
76962;SDS011;65902;51.452;7.198;2023-03-07T00:39:03;15.27;;;12.88;;
76962;SDS011;65902;51.452;7.198;2023-03-07T00:42:55;12.23;;;9.73;;
76962;SDS011;65902;51.452;7.198;2023-03-07T00:46:08;15.00;;;13.52;;
76962;SDS011;65902;51.452;7.198;2023-03-07T00:47:52;15.55;;;12.98;;
76962;SDS011;65902;51.452;7.198;2023-03-07T00:51:23;13.73;;;10.82;;
76962;SDS011;65902;51.452;7.198;2023-03-07T00:52:24;13.93;;;10.80;;
76962;SDS011;65902;51.452;7.198;2023-03-07T00:53:45;13.88;;;11.27;;
76962;SDS011;65902;51.452;7.198;2023-03-07T01:01:19;16.10;;;14.57;;
76962;SDS011;65902;51.452;7.198;2023-03-07T01:02:32;13.07;;;10.55;;
76962;SDS011;65902;51.452;7.198;2023-03-07T01:03:33;20.55;;;18.63;;
76962;SDS011;65902;51.452;7.198;2023-03-07T01:04:40;18.50;;;16.80;;
76962;SDS011;65902;51.452;7.198;2023-03-07T01:05:59;15.82;;;14.18;;
76962;SDS011;65902;51.452;7.198;2023-03-07T01:07:17;12.15;;;10.85;;
76962;SDS011;65902;51.452;7.198;2023-03-07T01:08:18;12.68;;;10.65;;
76962;SDS011;65902;51.452;7.198;2023-03-07T01:09:19;13.20;;;11.90;;
76962;SDS011;65902;51.452;7.198;2023-03-07T01:10:19;17.98;;;12.52;;
76962;SDS011;65902;51.452;7.198;2023-03-07T01:11:43;22.52;;;20.83;;
76962;SDS011;65902;51.452;7.198;2023-03-07T01:12:44;10.40;;;8.65;;
76962;SDS011;65902;51.452;7.198;2023-03-07T01:13:54;13.25;;;11.77;;
76962;SDS011;65902;51.452;7.198;2023-03-07T01:17:23;11.88;;;10.63;;
76962;SDS011;65902;51.452;7.198;2023-03-07T01:18:28;12.38;;;11.05;;
76962;SDS011;65902;51.452;7.198;2023-03-07T01:19:36;14.55;;;10.68;;
76962;SDS011;65902;51.452;7.198;2023-03-07T01:22:58;13.13;;;11.63;;
76962;SDS011;65902;51.452;7.198;2023-03-07T01:23:59;12.23;;;10.77;;
76962;SDS011;65902;51.452;7.198;2023-03-07T01:25:00;13.30;;;10.70;;
76962;SDS011;65902;51.452;7.198;2023-03-07T01:26:01;14.10;;;12.85;;
76962;SDS011;65902;51.452;7.198;2023-03-07T01:27:02;15.45;;;10.50;;
76962;SDS011;65902;51.452;7.198;2023-03-07T01:28:03;12.57;;;10.68;;
76962;SDS011;65902;51.452;7.198;2023-03-07T01:29:05;13.00;;;10.85;;
76962;SDS011;65902;51.452;7.198;2023-03-07T01:30:10;16.90;;;15.07;;
76962;SDS011;65902;51.452;7.198;2023-03-07T01:31:11;18.70;;;17.20;;
76962;SDS011;65902;51.452;7.198;2023-03-07T01:32:14;10.60;;;7.95;;
76962;SDS011;65902;51.452;7.198;2023-03-07T01:33:14;12.00;;;10.77;;
76962;SDS011;65902;51.452;7.198;2023-03-07T01:34:15;12.13;;;10.15;;
76962;SDS011;65902;51.452;7.198;2023-03-07T01:35:16;13.18;;;11.82;;
76962;SDS011;65902;51.452;7.198;2023-03-07T01:36:21;12.27;;;10.60;;
76962;SDS011;65902;51.452;7.198;2023-03-07T01:37:29;11.60;;;10.00;;
76962;SDS011;65902;51.452;7.198;2023-03-07T01:38:30;11.98;;;8.07;;
76962;SDS011;65902;51.452;7.198;2023-03-07T01:39:33;14.68;;;13.32;;
76962;SDS011;65902;51.452;7.198;2023-03-07T01:40:34;9.82;;;8.38;;
76962;SDS011;65902;51.452;7.198;2023-03-07T01:42:11;10.55;;;9.32;;
76962;SDS011;65902;51.452;7.198;2023-03-07T01:44:20;12.93;;;9.98;;
76962;SDS011;65902;51.452;7.198;2023-03-07T01:47:43;10.93;;;7.82;;
76962;SDS011;65902;51.452;7.198;2023-03-07T01:48:58;10.55;;;9.25;;
76962;SDS011;65902;51.452;7.198;2023-03-07T01:50:09;11.15;;;9.65;;
76962;SDS011;65902;51.452;7.198;2023-03-07T01:51:14;11.27;;;10.15;;
76962;SDS011;65902;51.452;7.198;2023-03-07T01:52:19;9.75;;;8.68;;
76962;SDS011;65902;51.452;7.198;2023-03-07T01:53:24;14.45;;;13.07;;
76962;SDS011;65902;51.452;7.198;2023-03-07T01:54:25;10.55;;;7.65;;
76962;SDS011;65902;51.452;7.198;2023-03-07T01:55:50;12.05;;;10.10;;
76962;SDS011;65902;51.452;7.198;2023-03-07T01:57:11;10.23;;;9.20;;
76962;SDS011;65902;51.452;7.198;2023-03-07T01:58:43;10.02;;;9.07;;
76962;SDS011;65902;51.452;7.198;2023-03-07T02:00:12;9.70;;;7.60;;
76962;SDS011;65902;51.452;7.198;2023-03-07T02:08:18;9.75;;;8.70;;
76962;SDS011;65902;51.452;7.198;2023-03-07T02:09:31;8.73;;;6.90;;
76962;SDS011;65902;51.452;7.198;2023-03-07T02:10:36;7.90;;;6.57;;
76962;SDS011;65902;51.452;7.198;2023-03-07T02:11:40;7.53;;;6.35;;
76962;SDS011;65902;51.452;7.198;2023-03-07T02:13:11;9.00;;;7.93;;
76962;SDS011;65902;51.452;7.198;2023-03-07T02:14:12;15.20;;;13.88;;
76962;SDS011;65902;51.452;7.198;2023-03-07T02:15:13;11.27;;;9.57;;
76962;SDS011;65902;51.452;7.198;2023-03-07T02:16:24;11.35;;;8.85;;
76962;SDS011;65902;51.452;7.198;2023-03-07T02:17:30;7.95;;;7.13;;
76962;SDS011;65902;51.452;7.198;2023-03-07T02:18:37;9.60;;;8.13;;
76962;SDS011;65902;51.452;7.198;2023-03-07T02:19:58;8.88;;;7.90;;
76962;SDS011;65902;51.452;7.198;2023-03-07T02:21:12;9.68;;;8.68;;
76962;SDS011;65902;51.452;7.198;2023-03-07T02:22:18;9.10;;;8.20;;
76962;SDS011;65902;51.452;7.198;2023-03-07T02:24:46;7.78;;;7.00;;
76962;SDS011;65902;51.452;7.198;2023-03-07T02:26:33;15.07;;;13.93;;
76962;SDS011;65902;51.452;7.198;2023-03-07T02:27:46;7.70;;;7.07;;
76962;SDS011;65902;51.452;7.198;2023-03-07T02:28:48;9.65;;;8.82;;
76962;SDS011;65902;51.452;7.198;2023-03-07T02:29:49;11.20;;;10.27;;
76962;SDS011;65902;51.452;7.198;2023-03-07T02:30:54;12.07;;;11.02;;
76962;SDS011;65902;51.452;7.198;2023-03-07T02:38:24;15.00;;;14.07;;
76962;SDS011;65902;51.452;7.198;2023-03-07T02:39:25;10.05;;;9.27;;
76962;SDS011;65902;51.452;7.198;2023-03-07T02:40:29;8.15;;;7.47;;
76962;SDS011;65902;51.452;7.198;2023-03-07T02:41:47;8.68;;;7.95;;
76962;SDS011;65902;51.452;7.198;2023-03-07T02:42:57;8.68;;;7.88;;
76962;SDS011;65902;51.452;7.198;2023-03-07T02:44:03;8.35;;;7.75;;
76962;SDS011;65902;51.452;7.198;2023-03-07T02:45:19;8.13;;;7.50;;
76962;SDS011;65902;51.452;7.198;2023-03-07T02:46:20;6.63;;;6.00;;
76962;SDS011;65902;51.452;7.198;2023-03-07T02:47:21;9.10;;;6.88;;
76962;SDS011;65902;51.452;7.198;2023-03-07T02:48:28;7.07;;;6.47;;
76962;SDS011;65902;51.452;7.198;2023-03-07T02:49:38;10.48;;;9.68;;
76962;SDS011;65902;51.452;7.198;2023-03-07T02:51:10;7.15;;;6.40;;
76962;SDS011;65902;51.452;7.198;2023-03-07T02:52:39;6.18;;;5.65;;
76962;SDS011;65902;51.452;7.198;2023-03-07T02:54:25;6.88;;;6.25;;
76962;SDS011;65902;51.452;7.198;2023-03-07T02:55:34;8.70;;;7.90;;
76962;SDS011;65902;51.452;7.198;2023-03-07T02:56:35;8.20;;;7.03;;
76962;SDS011;65902;51.452;7.198;2023-03-07T02:57:35;6.13;;;5.43;;
76962;SDS011;65902;51.452;7.198;2023-03-07T02:58:36;7.65;;;6.97;;
76962;SDS011;65902;51.452;7.198;2023-03-07T02:59:36;7.20;;;6.50;;
76962;SDS011;65902;51.452;7.198;2023-03-07T03:00:37;6.03;;;5.43;;
76962;SDS011;65902;51.452;7.198;2023-03-07T03:01:39;9.02;;;8.32;;
76962;SDS011;65902;51.452;7.198;2023-03-07T03:02:40;6.05;;;5.53;;
76962;SDS011;65902;51.452;7.198;2023-03-07T03:03:44;7.45;;;6.75;;
76962;SDS011;65902;51.452;7.198;2023-03-07T03:04:47;10.48;;;9.70;;
76962;SDS011;65902;51.452;7.198;2023-03-07T03:05:48;6.82;;;6.13;;
76962;SDS011;65902;51.452;7.198;2023-03-07T03:07:06;8.80;;;7.88;;
76962;SDS011;65902;51.452;7.198;2023-03-07T03:08:28;7.32;;;6.63;;
76962;SDS011;65902;51.452;7.198;2023-03-07T03:09:29;6.20;;;5.60;;
76962;SDS011;65902;51.452;7.198;2023-03-07T03:10:31;7.00;;;6.15;;
76962;SDS011;65902;51.452;7.198;2023-03-07T03:11:55;6.60;;;6.00;;
76962;SDS011;65902;51.452;7.198;2023-03-07T03:12:56;9.18;;;8.57;;
76962;SDS011;65902;51.452;7.198;2023-03-07T03:13:56;8.93;;;8.23;;
76962;SDS011;65902;51.452;7.198;2023-03-07T03:15:00;7.68;;;6.97;;
76962;SDS011;65902;51.452;7.198;2023-03-07T03:16:05;8.85;;;8.13;;
76962;SDS011;65902;51.452;7.198;2023-03-07T03:17:12;6.63;;;6.00;;
76962;SDS011;65902;51.452;7.198;2023-03-07T03:18:13;6.07;;;5.47;;
76962;SDS011;65902;51.452;7.198;2023-03-07T03:19:14;9.60;;;8.90;;
76962;SDS011;65902;51.452;7.198;2023-03-07T03:20:14;6.90;;;4.82;;
76962;SDS011;65902;51.452;7.198;2023-03-07T03:21:16;7.88;;;7.07;;
76962;SDS011;65902;51.452;7.198;2023-03-07T03:22:21;7.43;;;6.72;;
76962;SDS011;65902;51.452;7.198;2023-03-07T03:23:29;6.30;;;5.72;;
76962;SDS011;65902;51.452;7.198;2023-03-07T03:24:36;7.07;;;6.47;;
76962;SDS011;65902;51.452;7.198;2023-03-07T03:25:57;7.05;;;6.00;;
76962;SDS011;65902;51.452;7.198;2023-03-07T03:27:20;6.53;;;5.93;;
76962;SDS011;65902;51.452;7.198;2023-03-07T03:28:20;7.80;;;7.18;;
76962;SDS011;65902;51.452;7.198;2023-03-07T03:29:24;4.65;;;4.15;;
76962;SDS011;65902;51.452;7.198;2023-03-07T03:30:26;11.15;;;10.45;;
76962;SDS011;65902;51.452;7.198;2023-03-07T03:31:34;5.93;;;5.18;;
76962;SDS011;65902;51.452;7.198;2023-03-07T03:32:40;6.22;;;5.68;;
76962;SDS011;65902;51.452;7.198;2023-03-07T03:33:51;4.68;;;4.28;;
76962;SDS011;65902;51.452;7.198;2023-03-07T03:35:04;5.93;;;5.38;;
76962;SDS011;65902;51.452;7.198;2023-03-07T03:36:32;4.68;;;4.28;;
76962;SDS011;65902;51.452;7.198;2023-03-07T03:37:39;12.18;;;11.48;;
76962;SDS011;65902;51.452;7.198;2023-03-07T03:39:10;12.75;;;11.90;;
76962;SDS011;65902;51.452;7.198;2023-03-07T03:40:19;5.72;;;5.03;;
76962;SDS011;65902;51.452;7.198;2023-03-07T03:41:25;8.52;;;7.90;;
76962;SDS011;65902;51.452;7.198;2023-03-07T03:42:30;5.30;;;4.80;;
76962;SDS011;65902;51.452;7.198;2023-03-07T03:43:31;7.45;;;6.75;;
76962;SDS011;65902;51.452;7.198;2023-03-07T03:45:35;10.57;;;9.88;;
76962;SDS011;65902;51.452;7.198;2023-03-07T03:46:36;9.20;;;8.50;;
76962;SDS011;65902;51.452;7.198;2023-03-07T03:47:39;6.53;;;5.80;;
76962;SDS011;65902;51.452;7.198;2023-03-07T03:48:43;7.13;;;6.53;;
76962;SDS011;65902;51.452;7.198;2023-03-07T03:49:44;7.65;;;6.78;;
76962;SDS011;65902;51.452;7.198;2023-03-07T03:50:45;8.20;;;7.50;;
76962;SDS011;65902;51.452;7.198;2023-03-07T03:51:48;7.55;;;6.95;;
76962;SDS011;65902;51.452;7.198;2023-03-07T03:52:51;6.10;;;5.50;;
76962;SDS011;65902;51.452;7.198;2023-03-07T03:53:51;6.90;;;6.28;;
76962;SDS011;65902;51.452;7.198;2023-03-07T03:54:52;10.52;;;9.73;;
76962;SDS011;65902;51.452;7.198;2023-03-07T03:55:59;6.55;;;5.70;;
76962;SDS011;65902;51.452;7.198;2023-03-07T03:58:06;8.50;;;7.85;;
76962;SDS011;65902;51.452;7.198;2023-03-07T03:59:06;8.05;;;7.25;;
76962;SDS011;65902;51.452;7.198;2023-03-07T04:00:10;8.05;;;7.22;;
76962;SDS011;65902;51.452;7.198;2023-03-07T04:01:14;7.53;;;6.85;;
76962;SDS011;65902;51.452;7.198;2023-03-07T04:02:15;19.05;;;17.95;;
76962;SDS011;65902;51.452;7.198;2023-03-07T04:03:18;7.53;;;5.85;;
76962;SDS011;65902;51.452;7.198;2023-03-07T04:04:18;7.10;;;5.72;;
76962;SDS011;65902;51.452;7.198;2023-03-07T04:05:19;7.25;;;6.53;;
76962;SDS011;65902;51.452;7.198;2023-03-07T04:06:23;9.40;;;8.63;;
76962;SDS011;65902;51.452;7.198;2023-03-07T04:07:26;8.48;;;7.38;;
76962;SDS011;65902;51.452;7.198;2023-03-07T04:08:30;6.88;;;6.18;;
76962;SDS011;65902;51.452;7.198;2023-03-07T04:09:31;7.68;;;6.97;;
76962;SDS011;65902;51.452;7.198;2023-03-07T04:10:32;11.15;;;10.25;;
76962;SDS011;65902;51.452;7.198;2023-03-07T04:11:33;7.80;;;6.53;;
76962;SDS011;65902;51.452;7.198;2023-03-07T04:12:34;7.65;;;6.95;;
76962;SDS011;65902;51.452;7.198;2023-03-07T04:13:35;7.60;;;6.85;;
76962;SDS011;65902;51.452;7.198;2023-03-07T04:14:36;8.65;;;7.93;;
76962;SDS011;65902;51.452;7.198;2023-03-07T04:15:41;12.77;;;11.88;;
76962;SDS011;65902;51.452;7.198;2023-03-07T04:16:43;12.15;;;11.35;;
76962;SDS011;65902;51.452;7.198;2023-03-07T04:17:44;6.85;;;6.15;;
76962;SDS011;65902;51.452;7.198;2023-03-07T04:18:44;11.65;;;10.80;;
76962;SDS011;65902;51.452;7.198;2023-03-07T04:19:48;10.52;;;9.73;;
76962;SDS011;65902;51.452;7.198;2023-03-07T04:20:51;7.53;;;6.80;;
76962;SDS011;65902;51.452;7.198;2023-03-07T04:21:52;8.02;;;7.30;;
76962;SDS011;65902;51.452;7.198;2023-03-07T04:22:52;11.05;;;10.23;;
76962;SDS011;65902;51.452;7.198;2023-03-07T04:23:53;8.27;;;7.28;;
76962;SDS011;65902;51.452;7.198;2023-03-07T04:24:57;13.63;;;12.63;;
76962;SDS011;65902;51.452;7.198;2023-03-07T04:25:59;8.07;;;7.35;;
76962;SDS011;65902;51.452;7.198;2023-03-07T04:27:00;8.25;;;6.90;;
76962;SDS011;65902;51.452;7.198;2023-03-07T04:28:01;11.60;;;10.80;;
76962;SDS011;65902;51.452;7.198;2023-03-07T04:29:04;10.77;;;10.05;;
76962;SDS011;65902;51.452;7.198;2023-03-07T04:30:08;10.32;;;9.57;;
76962;SDS011;65902;51.452;7.198;2023-03-07T04:31:12;6.18;;;5.65;;
76962;SDS011;65902;51.452;7.198;2023-03-07T04:32:17;6.97;;;6.47;;
76962;SDS011;65902;51.452;7.198;2023-03-07T04:33:22;7.28;;;6.60;;
76962;SDS011;65902;51.452;7.198;2023-03-07T04:34:24;7.32;;;6.72;;
76962;SDS011;65902;51.452;7.198;2023-03-07T04:35:28;16.50;;;15.40;;
76962;SDS011;65902;51.452;7.198;2023-03-07T04:36:31;7.95;;;7.30;;
76962;SDS011;65902;51.452;7.198;2023-03-07T04:37:31;5.97;;;5.38;;
76962;SDS011;65902;51.452;7.198;2023-03-07T04:38:34;5.90;;;5.38;;
76962;SDS011;65902;51.452;7.198;2023-03-07T04:39:37;7.82;;;7.10;;
76962;SDS011;65902;51.452;7.198;2023-03-07T04:40:38;7.40;;;6.80;;
76962;SDS011;65902;51.452;7.198;2023-03-07T04:41:41;7.78;;;7.10;;
76962;SDS011;65902;51.452;7.198;2023-03-07T04:42:45;6.47;;;5.63;;
76962;SDS011;65902;51.452;7.198;2023-03-07T04:43:46;8.85;;;8.13;;
76962;SDS011;65902;51.452;7.198;2023-03-07T04:44:49;9.38;;;8.60;;
76962;SDS011;65902;51.452;7.198;2023-03-07T04:45:52;7.53;;;6.82;;
76962;SDS011;65902;51.452;7.198;2023-03-07T04:46:55;8.85;;;8.05;;
76962;SDS011;65902;51.452;7.198;2023-03-07T04:47:56;7.68;;;6.97;;
76962;SDS011;65902;51.452;7.198;2023-03-07T04:48:57;12.63;;;11.73;;
76962;SDS011;65902;51.452;7.198;2023-03-07T04:49:58;8.48;;;7.78;;
76962;SDS011;65902;51.452;7.198;2023-03-07T04:50:59;6.10;;;5.53;;
76962;SDS011;65902;51.452;7.198;2023-03-07T04:51:59;11.23;;;10.23;;
76962;SDS011;65902;51.452;7.198;2023-03-07T04:53:02;8.88;;;7.10;;
76962;SDS011;65902;51.452;7.198;2023-03-07T04:54:05;10.23;;;9.32;;
76962;SDS011;65902;51.452;7.198;2023-03-07T04:55:09;10.30;;;9.30;;
76962;SDS011;65902;51.452;7.198;2023-03-07T04:56:12;8.05;;;7.00;;
76962;SDS011;65902;51.452;7.198;2023-03-07T04:57:15;10.35;;;9.35;;
76962;SDS011;65902;51.452;7.198;2023-03-07T04:58:18;9.95;;;9.05;;
76962;SDS011;65902;51.452;7.198;2023-03-07T04:59:19;10.55;;;9.57;;
76962;SDS011;65902;51.452;7.198;2023-03-07T05:00:20;15.00;;;13.90;;
76962;SDS011;65902;51.452;7.198;2023-03-07T05:01:21;13.57;;;12.38;;
76962;SDS011;65902;51.452;7.198;2023-03-07T05:02:24;11.85;;;10.77;;
76962;SDS011;65902;51.452;7.198;2023-03-07T05:03:27;15.63;;;14.38;;
76962;SDS011;65902;51.452;7.198;2023-03-07T05:04:28;10.27;;;8.93;;
76962;SDS011;65902;51.452;7.198;2023-03-07T05:05:31;9.43;;;7.60;;
76962;SDS011;65902;51.452;7.198;2023-03-07T05:06:31;19.92;;;18.50;;
76962;SDS011;65902;51.452;7.198;2023-03-07T05:07:32;10.23;;;9.23;;
76962;SDS011;65902;51.452;7.198;2023-03-07T05:08:33;9.55;;;8.55;;
76962;SDS011;65902;51.452;7.198;2023-03-07T05:09:34;15.98;;;14.65;;
76962;SDS011;65902;51.452;7.198;2023-03-07T05:10:35;10.63;;;9.35;;
76962;SDS011;65902;51.452;7.198;2023-03-07T05:11:36;14.95;;;13.48;;
76962;SDS011;65902;51.452;7.198;2023-03-07T05:12:37;13.15;;;11.80;;
76962;SDS011;65902;51.452;7.198;2023-03-07T05:13:38;12.73;;;11.25;;
76962;SDS011;65902;51.452;7.198;2023-03-07T05:14:39;12.95;;;10.90;;
76962;SDS011;65902;51.452;7.198;2023-03-07T05:15:43;11.88;;;10.65;;
76962;SDS011;65902;51.452;7.198;2023-03-07T05:16:46;12.68;;;11.45;;
76962;SDS011;65902;51.452;7.198;2023-03-07T05:17:49;14.65;;;13.23;;
76962;SDS011;65902;51.452;7.198;2023-03-07T05:18:50;12.43;;;11.30;;
76962;SDS011;65902;51.452;7.198;2023-03-07T05:19:51;13.35;;;11.82;;
76962;SDS011;65902;51.452;7.198;2023-03-07T05:20:54;12.27;;;11.00;;
76962;SDS011;65902;51.452;7.198;2023-03-07T05:21:55;15.60;;;14.13;;
76962;SDS011;65902;51.452;7.198;2023-03-07T05:22:56;14.55;;;12.95;;
76962;SDS011;65902;51.452;7.198;2023-03-07T05:23:56;13.95;;;12.57;;
76962;SDS011;65902;51.452;7.198;2023-03-07T05:25:00;13.88;;;10.82;;
76962;SDS011;65902;51.452;7.198;2023-03-07T05:26:05;13.77;;;12.18;;
76962;SDS011;65902;51.452;7.198;2023-03-07T05:27:08;15.70;;;12.20;;
76962;SDS011;65902;51.452;7.198;2023-03-07T05:28:10;10.75;;;9.60;;
76962;SDS011;65902;51.452;7.198;2023-03-07T05:29:11;12.23;;;11.00;;
76962;SDS011;65902;51.452;7.198;2023-03-07T05:30:12;12.75;;;10.82;;
76962;SDS011;65902;51.452;7.198;2023-03-07T05:31:15;13.25;;;11.82;;
76962;SDS011;65902;51.452;7.198;2023-03-07T05:32:16;13.93;;;12.32;;
76962;SDS011;65902;51.452;7.198;2023-03-07T05:33:17;13.82;;;11.88;;
76962;SDS011;65902;51.452;7.198;2023-03-07T05:34:20;13.38;;;12.20;;
76962;SDS011;65902;51.452;7.198;2023-03-07T05:35:23;11.75;;;10.50;;
76962;SDS011;65902;51.452;7.198;2023-03-07T05:36:24;17.38;;;15.60;;
76962;SDS011;65902;51.452;7.198;2023-03-07T05:37:27;15.30;;;13.88;;
76962;SDS011;65902;51.452;7.198;2023-03-07T05:38:28;15.05;;;11.90;;
76962;SDS011;65902;51.452;7.198;2023-03-07T05:39:29;18.65;;;17.08;;
76962;SDS011;65902;51.452;7.198;2023-03-07T05:40:30;13.45;;;12.15;;
76962;SDS011;65902;51.452;7.198;2023-03-07T05:41:30;13.23;;;11.82;;
76962;SDS011;65902;51.452;7.198;2023-03-07T05:42:31;20.77;;;19.15;;
76962;SDS011;65902;51.452;7.198;2023-03-07T05:43:32;14.55;;;10.82;;
76962;SDS011;65902;51.452;7.198;2023-03-07T05:44:33;11.38;;;10.05;;
76962;SDS011;65902;51.452;7.198;2023-03-07T05:45:33;14.13;;;12.52;;
76962;SDS011;65902;51.452;7.198;2023-03-07T05:46:37;14.18;;;11.52;;
76962;SDS011;65902;51.452;7.198;2023-03-07T05:47:37;11.80;;;10.35;;
76962;SDS011;65902;51.452;7.198;2023-03-07T05:48:38;20.00;;;18.40;;
76962;SDS011;65902;51.452;7.198;2023-03-07T05:49:39;12.68;;;11.43;;
76962;SDS011;65902;51.452;7.198;2023-03-07T05:50:42;12.75;;;11.52;;
76962;SDS011;65902;51.452;7.198;2023-03-07T05:51:45;11.93;;;9.98;;
76962;SDS011;65902;51.452;7.198;2023-03-07T05:52:46;12.10;;;10.90;;
76962;SDS011;65902;51.452;7.198;2023-03-07T05:53:47;11.70;;;10.23;;
76962;SDS011;65902;51.452;7.198;2023-03-07T05:54:48;16.77;;;15.38;;
76962;SDS011;65902;51.452;7.198;2023-03-07T05:55:49;12.50;;;11.32;;
76962;SDS011;65902;51.452;7.198;2023-03-07T05:56:50;15.93;;;12.07;;
76962;SDS011;65902;51.452;7.198;2023-03-07T05:57:53;13.90;;;12.52;;
76962;SDS011;65902;51.452;7.198;2023-03-07T05:58:54;12.73;;;10.40;;
76962;SDS011;65902;51.452;7.198;2023-03-07T05:59:59;11.65;;;10.48;;
76962;SDS011;65902;51.452;7.198;2023-03-07T06:01:00;11.95;;;10.13;;
76962;SDS011;65902;51.452;7.198;2023-03-07T06:02:03;12.38;;;11.10;;
76962;SDS011;65902;51.452;7.198;2023-03-07T06:03:04;13.05;;;11.68;;
76962;SDS011;65902;51.452;7.198;2023-03-07T06:04:09;13.25;;;11.23;;
76962;SDS011;65902;51.452;7.198;2023-03-07T06:05:10;15.23;;;11.93;;
76962;SDS011;65902;51.452;7.198;2023-03-07T06:06:11;15.63;;;14.02;;
76962;SDS011;65902;51.452;7.198;2023-03-07T06:07:12;14.40;;;12.95;;
76962;SDS011;65902;51.452;7.198;2023-03-07T06:08:16;14.80;;;13.00;;
76962;SDS011;65902;51.452;7.198;2023-03-07T06:10:20;12.05;;;10.90;;
76962;SDS011;65902;51.452;7.198;2023-03-07T06:11:21;14.40;;;12.90;;
76962;SDS011;65902;51.452;7.198;2023-03-07T06:12:22;12.57;;;10.57;;
76962;SDS011;65902;51.452;7.198;2023-03-07T06:13:25;14.98;;;11.55;;
76962;SDS011;65902;51.452;7.198;2023-03-07T06:14:30;15.27;;;13.65;;
76962;SDS011;65902;51.452;7.198;2023-03-07T06:15:31;13.43;;;9.45;;
76962;SDS011;65902;51.452;7.198;2023-03-07T06:16:32;11.18;;;9.93;;
76962;SDS011;65902;51.452;7.198;2023-03-07T06:17:35;9.75;;;8.70;;
76962;SDS011;65902;51.452;7.198;2023-03-07T06:18:38;15.25;;;13.70;;
76962;SDS011;65902;51.452;7.198;2023-03-07T06:19:42;11.98;;;10.07;;
76962;SDS011;65902;51.452;7.198;2023-03-07T06:20:43;21.40;;;19.70;;
76962;SDS011;65902;51.452;7.198;2023-03-07T06:21:53;14.50;;;13.00;;
76962;SDS011;65902;51.452;7.198;2023-03-07T06:22:56;11.60;;;10.23;;
76962;SDS011;65902;51.452;7.198;2023-03-07T06:23:57;17.77;;;16.15;;
76962;SDS011;65902;51.452;7.198;2023-03-07T06:25:02;12.88;;;11.45;;
76962;SDS011;65902;51.452;7.198;2023-03-07T06:26:09;17.52;;;15.93;;
76962;SDS011;65902;51.452;7.198;2023-03-07T06:27:11;9.48;;;8.38;;
76962;SDS011;65902;51.452;7.198;2023-03-07T06:28:12;16.55;;;14.38;;
76962;SDS011;65902;51.452;7.198;2023-03-07T06:29:18;19.90;;;12.30;;
76962;SDS011;65902;51.452;7.198;2023-03-07T06:30:18;12.32;;;10.48;;
76962;SDS011;65902;51.452;7.198;2023-03-07T06:31:19;12.55;;;10.30;;
76962;SDS011;65902;51.452;7.198;2023-03-07T06:32:23;17.88;;;13.65;;
76962;SDS011;65902;51.452;7.198;2023-03-07T06:33:24;11.98;;;10.77;;
76962;SDS011;65902;51.452;7.198;2023-03-07T06:34:24;13.80;;;12.40;;
76962;SDS011;65902;51.452;7.198;2023-03-07T06:35:26;12.70;;;10.10;;
76962;SDS011;65902;51.452;7.198;2023-03-07T06:36:28;13.88;;;12.45;;
76962;SDS011;65902;51.452;7.198;2023-03-07T06:37:31;18.55;;;16.92;;
76962;SDS011;65902;51.452;7.198;2023-03-07T06:38:34;11.77;;;10.48;;
76962;SDS011;65902;51.452;7.198;2023-03-07T06:39:37;11.48;;;9.57;;
76962;SDS011;65902;51.452;7.198;2023-03-07T06:40:38;15.35;;;12.07;;
76962;SDS011;65902;51.452;7.198;2023-03-07T06:41:39;13.93;;;11.02;;
76962;SDS011;65902;51.452;7.198;2023-03-07T06:42:40;17.02;;;15.40;;
76962;SDS011;65902;51.452;7.198;2023-03-07T06:43:41;16.65;;;12.63;;
76962;SDS011;65902;51.452;7.198;2023-03-07T06:44:41;13.10;;;11.45;;
76962;SDS011;65902;51.452;7.198;2023-03-07T06:45:42;9.88;;;8.98;;
76962;SDS011;65902;51.452;7.198;2023-03-07T06:46:48;13.27;;;12.02;;
76962;SDS011;65902;51.452;7.198;2023-03-07T06:48:52;14.60;;;11.80;;
76962;SDS011;65902;51.452;7.198;2023-03-07T06:49:54;12.68;;;11.45;;
76962;SDS011;65902;51.452;7.198;2023-03-07T06:50:55;16.63;;;15.15;;
76962;SDS011;65902;51.452;7.198;2023-03-07T06:51:56;13.57;;;12.18;;
76962;SDS011;65902;51.452;7.198;2023-03-07T06:52:56;15.68;;;14.18;;
76962;SDS011;65902;51.452;7.198;2023-03-07T06:54:02;16.15;;;13.90;;
76962;SDS011;65902;51.452;7.198;2023-03-07T06:55:05;11.65;;;10.52;;
76962;SDS011;65902;51.452;7.198;2023-03-07T06:56:07;15.32;;;12.98;;
76962;SDS011;65902;51.452;7.198;2023-03-07T06:57:10;17.63;;;15.93;;
76962;SDS011;65902;51.452;7.198;2023-03-07T06:58:11;17.52;;;15.82;;
76962;SDS011;65902;51.452;7.198;2023-03-07T06:59:12;13.90;;;12.23;;
76962;SDS011;65902;51.452;7.198;2023-03-07T07:00:13;15.85;;;14.25;;
76962;SDS011;65902;51.452;7.198;2023-03-07T07:01:20;14.45;;;12.00;;
76962;SDS011;65902;51.452;7.198;2023-03-07T07:02:24;14.63;;;13.13;;
76962;SDS011;65902;51.452;7.198;2023-03-07T07:03:25;17.50;;;15.80;;
76962;SDS011;65902;51.452;7.198;2023-03-07T07:04:25;15.80;;;12.68;;
76962;SDS011;65902;51.452;7.198;2023-03-07T07:05:26;15.02;;;13.52;;
76962;SDS011;65902;51.452;7.198;2023-03-07T07:06:27;16.45;;;14.73;;
76962;SDS011;65902;51.452;7.198;2023-03-07T07:07:31;14.30;;;11.50;;
76962;SDS011;65902;51.452;7.198;2023-03-07T07:08:32;18.08;;;16.20;;
76962;SDS011;65902;51.452;7.198;2023-03-07T07:09:33;17.17;;;15.07;;
76962;SDS011;65902;51.452;7.198;2023-03-07T07:10:34;14.00;;;11.50;;
76962;SDS011;65902;51.452;7.198;2023-03-07T07:11:34;16.05;;;14.13;;
76962;SDS011;65902;51.452;7.198;2023-03-07T07:12:35;14.50;;;12.82;;